sensor_id;sensor_type;location;lat;lon;timestamp;P1;durP1;ratioP1;P2;durP2;ratioP2
31966;SDS011;18496;52.042;6.812;2024-02-26T00:00:23;8.50;;;4.28;;
31966;SDS011;18496;52.042;6.812;2024-02-26T00:02:27;7.10;;;4.05;;
31966;SDS011;18496;52.042;6.812;2024-02-26T00:04:30;5.78;;;3.65;;
31966;SDS011;18496;52.042;6.812;2024-02-26T00:06:34;8.52;;;3.47;;
31966;SDS011;18496;52.042;6.812;2024-02-26T00:08:38;6.10;;;3.72;;
31966;SDS011;18496;52.042;6.812;2024-02-26T00:10:42;7.50;;;3.95;;
31966;SDS011;18496;52.042;6.812;2024-02-26T00:12:45;6.85;;;4.07;;
31966;SDS011;18496;52.042;6.812;2024-02-26T00:14:50;6.28;;;3.60;;
31966;SDS011;18496;52.042;6.812;2024-02-26T00:16:53;9.85;;;3.90;;
31966;SDS011;18496;52.042;6.812;2024-02-26T00:18:57;4.88;;;3.40;;
31966;SDS011;18496;52.042;6.812;2024-02-26T00:21:01;10.77;;;4.00;;
31966;SDS011;18496;52.042;6.812;2024-02-26T00:23:05;4.40;;;3.15;;
31966;SDS011;18496;52.042;6.812;2024-02-26T00:25:09;9.35;;;3.80;;
31966;SDS011;18496;52.042;6.812;2024-02-26T00:27:15;6.00;;;3.47;;
31966;SDS011;18496;52.042;6.812;2024-02-26T00:29:19;5.25;;;2.80;;
31966;SDS011;18496;52.042;6.812;2024-02-26T00:31:22;4.97;;;2.92;;
31966;SDS011;18496;52.042;6.812;2024-02-26T00:33:26;8.00;;;3.30;;
31966;SDS011;18496;52.042;6.812;2024-02-26T00:35:30;5.38;;;2.83;;
31966;SDS011;18496;52.042;6.812;2024-02-26T00:37:34;4.88;;;3.33;;
31966;SDS011;18496;52.042;6.812;2024-02-26T00:39:37;5.00;;;3.10;;
31966;SDS011;18496;52.042;6.812;2024-02-26T00:41:41;5.82;;;3.30;;
31966;SDS011;18496;52.042;6.812;2024-02-26T00:43:45;5.78;;;3.45;;
31966;SDS011;18496;52.042;6.812;2024-02-26T00:45:48;5.07;;;2.90;;
31966;SDS011;18496;52.042;6.812;2024-02-26T00:47:52;5.03;;;2.85;;
31966;SDS011;18496;52.042;6.812;2024-02-26T00:49:56;4.85;;;3.28;;
31966;SDS011;18496;52.042;6.812;2024-02-26T00:52:00;7.10;;;3.20;;
31966;SDS011;18496;52.042;6.812;2024-02-26T00:54:04;6.28;;;3.35;;
31966;SDS011;18496;52.042;6.812;2024-02-26T00:56:07;4.20;;;2.75;;
31966;SDS011;18496;52.042;6.812;2024-02-26T00:58:11;5.50;;;3.38;;
31966;SDS011;18496;52.042;6.812;2024-02-26T01:00:15;4.85;;;3.17;;
31966;SDS011;18496;52.042;6.812;2024-02-26T01:02:19;5.22;;;2.83;;
31966;SDS011;18496;52.042;6.812;2024-02-26T01:04:23;4.13;;;3.00;;
31966;SDS011;18496;52.042;6.812;2024-02-26T01:06:26;5.07;;;3.22;;
31966;SDS011;18496;52.042;6.812;2024-02-26T01:08:30;4.90;;;3.10;;
31966;SDS011;18496;52.042;6.812;2024-02-26T01:10:34;6.10;;;2.97;;
31966;SDS011;18496;52.042;6.812;2024-02-26T01:12:38;4.85;;;3.05;;
31966;SDS011;18496;52.042;6.812;2024-02-26T01:14:42;6.18;;;3.53;;
31966;SDS011;18496;52.042;6.812;2024-02-26T01:16:46;4.50;;;3.10;;
31966;SDS011;18496;52.042;6.812;2024-02-26T01:18:49;6.55;;;3.75;;
31966;SDS011;18496;52.042;6.812;2024-02-26T01:20:53;4.65;;;2.92;;
31966;SDS011;18496;52.042;6.812;2024-02-26T01:22:57;7.25;;;3.20;;
31966;SDS011;18496;52.042;6.812;2024-02-26T01:25:01;6.28;;;3.35;;
31966;SDS011;18496;52.042;6.812;2024-02-26T01:27:05;3.90;;;2.95;;
31966;SDS011;18496;52.042;6.812;2024-02-26T01:29:10;7.43;;;3.25;;
31966;SDS011;18496;52.042;6.812;2024-02-26T01:31:14;5.47;;;3.33;;
31966;SDS011;18496;52.042;6.812;2024-02-26T01:33:18;4.72;;;3.25;;
31966;SDS011;18496;52.042;6.812;2024-02-26T01:35:22;4.25;;;2.85;;
31966;SDS011;18496;52.042;6.812;2024-02-26T01:37:25;6.97;;;3.00;;
31966;SDS011;18496;52.042;6.812;2024-02-26T01:39:29;6.03;;;3.22;;
31966;SDS011;18496;52.042;6.812;2024-02-26T01:41:33;5.80;;;3.22;;
31966;SDS011;18496;52.042;6.812;2024-02-26T01:43:37;4.85;;;2.60;;
31966;SDS011;18496;52.042;6.812;2024-02-26T01:45:40;3.58;;;2.67;;
31966;SDS011;18496;52.042;6.812;2024-02-26T01:47:44;4.57;;;2.47;;
31966;SDS011;18496;52.042;6.812;2024-02-26T01:49:48;4.00;;;2.80;;
31966;SDS011;18496;52.042;6.812;2024-02-26T01:51:52;5.93;;;2.90;;
31966;SDS011;18496;52.042;6.812;2024-02-26T01:53:57;9.98;;;3.03;;
31966;SDS011;18496;52.042;6.812;2024-02-26T01:56:01;4.35;;;2.83;;
31966;SDS011;18496;52.042;6.812;2024-02-26T01:58:05;7.93;;;2.97;;
31966;SDS011;18496;52.042;6.812;2024-02-26T02:00:10;6.32;;;3.45;;
31966;SDS011;18496;52.042;6.812;2024-02-26T02:02:14;7.38;;;2.92;;
31966;SDS011;18496;52.042;6.812;2024-02-26T02:04:19;5.55;;;2.80;;
31966;SDS011;18496;52.042;6.812;2024-02-26T02:06:22;3.58;;;2.70;;
31966;SDS011;18496;52.042;6.812;2024-02-26T02:08:26;5.78;;;2.90;;
31966;SDS011;18496;52.042;6.812;2024-02-26T02:10:30;5.28;;;2.50;;
31966;SDS011;18496;52.042;6.812;2024-02-26T02:12:34;4.05;;;2.95;;
31966;SDS011;18496;52.042;6.812;2024-02-26T02:14:39;6.90;;;3.22;;
31966;SDS011;18496;52.042;6.812;2024-02-26T02:16:42;3.67;;;2.65;;
31966;SDS011;18496;52.042;6.812;2024-02-26T02:18:46;4.60;;;3.10;;
31966;SDS011;18496;52.042;6.812;2024-02-26T02:20:50;4.40;;;3.25;;
31966;SDS011;18496;52.042;6.812;2024-02-26T02:22:53;4.55;;;2.85;;
31966;SDS011;18496;52.042;6.812;2024-02-26T02:24:57;4.93;;;2.97;;
31966;SDS011;18496;52.042;6.812;2024-02-26T02:27:02;4.47;;;3.08;;
31966;SDS011;18496;52.042;6.812;2024-02-26T02:29:06;5.07;;;2.97;;
31966;SDS011;18496;52.042;6.812;2024-02-26T02:31:10;5.30;;;2.88;;
31966;SDS011;18496;52.042;6.812;2024-02-26T02:33:14;5.20;;;3.22;;
31966;SDS011;18496;52.042;6.812;2024-02-26T02:35:19;3.55;;;2.75;;
31966;SDS011;18496;52.042;6.812;2024-02-26T02:37:22;4.85;;;2.75;;
31966;SDS011;18496;52.042;6.812;2024-02-26T02:39:26;5.22;;;3.38;;
31966;SDS011;18496;52.042;6.812;2024-02-26T02:41:30;5.95;;;3.40;;
31966;SDS011;18496;52.042;6.812;2024-02-26T02:43:34;9.60;;;3.40;;
31966;SDS011;18496;52.042;6.812;2024-02-26T02:45:37;9.73;;;3.65;;
31966;SDS011;18496;52.042;6.812;2024-02-26T02:47:41;5.80;;;3.40;;
31966;SDS011;18496;52.042;6.812;2024-02-26T02:49:45;6.68;;;3.90;;
31966;SDS011;18496;52.042;6.812;2024-02-26T02:51:48;6.43;;;3.67;;
31966;SDS011;18496;52.042;6.812;2024-02-26T02:53:52;5.47;;;3.42;;
31966;SDS011;18496;52.042;6.812;2024-02-26T02:55:56;3.78;;;2.88;;
31966;SDS011;18496;52.042;6.812;2024-02-26T02:58:00;4.97;;;3.10;;
31966;SDS011;18496;52.042;6.812;2024-02-26T03:00:04;4.22;;;2.90;;
31966;SDS011;18496;52.042;6.812;2024-02-26T03:02:08;3.83;;;2.40;;
31966;SDS011;18496;52.042;6.812;2024-02-26T03:04:12;5.50;;;2.80;;
31966;SDS011;18496;52.042;6.812;2024-02-26T03:06:15;3.67;;;2.38;;
31966;SDS011;18496;52.042;6.812;2024-02-26T03:08:19;3.17;;;2.40;;
31966;SDS011;18496;52.042;6.812;2024-02-26T03:10:23;5.20;;;2.88;;
31966;SDS011;18496;52.042;6.812;2024-02-26T03:12:27;7.95;;;3.20;;
31966;SDS011;18496;52.042;6.812;2024-02-26T03:14:31;5.10;;;2.70;;
31966;SDS011;18496;52.042;6.812;2024-02-26T03:16:34;3.67;;;2.92;;
31966;SDS011;18496;52.042;6.812;2024-02-26T03:18:39;4.75;;;2.90;;
31966;SDS011;18496;52.042;6.812;2024-02-26T03:20:43;5.53;;;3.20;;
31966;SDS011;18496;52.042;6.812;2024-02-26T03:22:47;5.07;;;3.17;;
31966;SDS011;18496;52.042;6.812;2024-02-26T03:24:50;5.68;;;3.38;;
31966;SDS011;18496;52.042;6.812;2024-02-26T03:26:54;5.43;;;3.45;;
31966;SDS011;18496;52.042;6.812;2024-02-26T03:28:58;5.90;;;3.13;;
31966;SDS011;18496;52.042;6.812;2024-02-26T03:31:02;5.00;;;3.55;;
31966;SDS011;18496;52.042;6.812;2024-02-26T03:33:05;7.65;;;3.45;;
31966;SDS011;18496;52.042;6.812;2024-02-26T03:35:09;5.70;;;3.30;;
31966;SDS011;18496;52.042;6.812;2024-02-26T03:37:13;3.92;;;2.70;;
31966;SDS011;18496;52.042;6.812;2024-02-26T03:39:17;8.75;;;3.25;;
31966;SDS011;18496;52.042;6.812;2024-02-26T03:41:20;8.32;;;3.05;;
31966;SDS011;18496;52.042;6.812;2024-02-26T03:43:24;8.45;;;2.95;;
31966;SDS011;18496;52.042;6.812;2024-02-26T03:45:28;5.55;;;3.42;;
31966;SDS011;18496;52.042;6.812;2024-02-26T03:47:31;5.95;;;3.50;;
31966;SDS011;18496;52.042;6.812;2024-02-26T03:49:35;6.97;;;3.25;;
31966;SDS011;18496;52.042;6.812;2024-02-26T03:51:39;6.47;;;3.75;;
31966;SDS011;18496;52.042;6.812;2024-02-26T03:53:42;5.15;;;3.53;;
31966;SDS011;18496;52.042;6.812;2024-02-26T03:55:46;6.07;;;3.85;;
31966;SDS011;18496;52.042;6.812;2024-02-26T03:57:50;7.57;;;4.38;;
31966;SDS011;18496;52.042;6.812;2024-02-26T03:59:54;5.20;;;3.40;;
31966;SDS011;18496;52.042;6.812;2024-02-26T04:01:59;5.18;;;3.63;;
31966;SDS011;18496;52.042;6.812;2024-02-26T04:04:04;4.75;;;3.28;;
31966;SDS011;18496;52.042;6.812;2024-02-26T04:06:09;6.68;;;3.47;;
31966;SDS011;18496;52.042;6.812;2024-02-26T04:08:22;5.32;;;3.45;;
31966;SDS011;18496;52.042;6.812;2024-02-26T04:10:26;6.28;;;3.92;;
31966;SDS011;18496;52.042;6.812;2024-02-26T04:12:30;5.70;;;3.47;;
31966;SDS011;18496;52.042;6.812;2024-02-26T04:14:34;8.68;;;3.45;;
31966;SDS011;18496;52.042;6.812;2024-02-26T04:16:39;6.72;;;4.18;;
31966;SDS011;18496;52.042;6.812;2024-02-26T04:18:42;7.90;;;4.45;;
31966;SDS011;18496;52.042;6.812;2024-02-26T04:20:46;8.48;;;4.40;;
31966;SDS011;18496;52.042;6.812;2024-02-26T04:22:50;7.22;;;4.13;;
31966;SDS011;18496;52.042;6.812;2024-02-26T04:24:54;6.88;;;4.97;;
31966;SDS011;18496;52.042;6.812;2024-02-26T04:26:57;6.05;;;4.18;;
31966;SDS011;18496;52.042;6.812;2024-02-26T04:29:01;6.82;;;4.28;;
31966;SDS011;18496;52.042;6.812;2024-02-26T04:31:05;9.32;;;4.78;;
31966;SDS011;18496;52.042;6.812;2024-02-26T04:33:09;8.38;;;4.90;;
31966;SDS011;18496;52.042;6.812;2024-02-26T04:35:12;6.57;;;4.28;;
31966;SDS011;18496;52.042;6.812;2024-02-26T04:37:16;8.25;;;4.75;;
31966;SDS011;18496;52.042;6.812;2024-02-26T04:39:20;6.10;;;4.45;;
31966;SDS011;18496;52.042;6.812;2024-02-26T04:41:24;6.38;;;4.10;;
31966;SDS011;18496;52.042;6.812;2024-02-26T04:43:27;8.23;;;4.90;;
31966;SDS011;18496;52.042;6.812;2024-02-26T04:45:31;8.00;;;4.10;;
31966;SDS011;18496;52.042;6.812;2024-02-26T04:47:35;8.43;;;4.32;;
31966;SDS011;18496;52.042;6.812;2024-02-26T04:49:39;6.07;;;4.00;;
31966;SDS011;18496;52.042;6.812;2024-02-26T04:51:42;7.78;;;4.00;;
31966;SDS011;18496;52.042;6.812;2024-02-26T04:53:46;7.88;;;5.45;;
31966;SDS011;18496;52.042;6.812;2024-02-26T04:55:50;6.07;;;4.20;;
31966;SDS011;18496;52.042;6.812;2024-02-26T04:57:53;8.15;;;4.13;;
31966;SDS011;18496;52.042;6.812;2024-02-26T04:59:57;5.00;;;3.70;;
31966;SDS011;18496;52.042;6.812;2024-02-26T05:02:01;5.10;;;3.70;;
31966;SDS011;18496;52.042;6.812;2024-02-26T05:04:04;5.25;;;3.85;;
31966;SDS011;18496;52.042;6.812;2024-02-26T05:06:08;7.10;;;4.45;;
31966;SDS011;18496;52.042;6.812;2024-02-26T05:08:12;6.22;;;3.70;;
31966;SDS011;18496;52.042;6.812;2024-02-26T05:10:16;7.55;;;4.05;;
31966;SDS011;18496;52.042;6.812;2024-02-26T05:12:20;5.65;;;3.75;;
31966;SDS011;18496;52.042;6.812;2024-02-26T05:14:23;6.10;;;3.72;;
31966;SDS011;18496;52.042;6.812;2024-02-26T05:16:27;4.97;;;3.78;;
31966;SDS011;18496;52.042;6.812;2024-02-26T05:18:33;7.38;;;4.00;;
31966;SDS011;18496;52.042;6.812;2024-02-26T05:20:36;6.10;;;3.83;;
31966;SDS011;18496;52.042;6.812;2024-02-26T05:22:41;6.03;;;3.72;;
31966;SDS011;18496;52.042;6.812;2024-02-26T05:24:45;6.70;;;4.10;;
31966;SDS011;18496;52.042;6.812;2024-02-26T05:26:49;5.43;;;3.90;;
31966;SDS011;18496;52.042;6.812;2024-02-26T05:28:52;4.90;;;3.50;;
31966;SDS011;18496;52.042;6.812;2024-02-26T05:30:56;4.60;;;3.47;;
31966;SDS011;18496;52.042;6.812;2024-02-26T05:33:00;4.80;;;3.70;;
31966;SDS011;18496;52.042;6.812;2024-02-26T05:35:03;5.22;;;3.47;;
31966;SDS011;18496;52.042;6.812;2024-02-26T05:37:07;6.18;;;3.60;;
31966;SDS011;18496;52.042;6.812;2024-02-26T05:39:11;5.13;;;3.45;;
31966;SDS011;18496;52.042;6.812;2024-02-26T05:41:15;5.22;;;3.58;;
31966;SDS011;18496;52.042;6.812;2024-02-26T05:43:19;7.45;;;4.22;;
31966;SDS011;18496;52.042;6.812;2024-02-26T05:45:23;6.28;;;3.83;;
31966;SDS011;18496;52.042;6.812;2024-02-26T05:47:27;4.97;;;3.35;;
31966;SDS011;18496;52.042;6.812;2024-02-26T05:49:30;4.43;;;3.50;;
31966;SDS011;18496;52.042;6.812;2024-02-26T05:51:35;5.65;;;3.50;;
31966;SDS011;18496;52.042;6.812;2024-02-26T05:53:40;5.65;;;3.50;;
31966;SDS011;18496;52.042;6.812;2024-02-26T05:55:44;5.28;;;3.20;;
31966;SDS011;18496;52.042;6.812;2024-02-26T05:57:47;5.50;;;3.20;;
31966;SDS011;18496;52.042;6.812;2024-02-26T05:59:53;4.68;;;3.10;;
31966;SDS011;18496;52.042;6.812;2024-02-26T06:01:56;5.95;;;3.28;;
31966;SDS011;18496;52.042;6.812;2024-02-26T06:04:00;5.70;;;3.58;;
31966;SDS011;18496;52.042;6.812;2024-02-26T06:06:03;6.32;;;3.63;;
31966;SDS011;18496;52.042;6.812;2024-02-26T06:08:07;4.88;;;3.20;;
31966;SDS011;18496;52.042;6.812;2024-02-26T06:10:11;6.72;;;3.05;;
31966;SDS011;18496;52.042;6.812;2024-02-26T06:12:16;4.57;;;3.40;;
31966;SDS011;18496;52.042;6.812;2024-02-26T06:14:20;5.82;;;3.63;;
31966;SDS011;18496;52.042;6.812;2024-02-26T06:16:24;3.67;;;3.05;;
31966;SDS011;18496;52.042;6.812;2024-02-26T06:18:27;5.97;;;3.63;;
31966;SDS011;18496;52.042;6.812;2024-02-26T06:20:31;6.32;;;4.20;;
31966;SDS011;18496;52.042;6.812;2024-02-26T06:22:35;6.03;;;3.58;;
31966;SDS011;18496;52.042;6.812;2024-02-26T06:24:38;6.03;;;3.70;;
31966;SDS011;18496;52.042;6.812;2024-02-26T06:26:42;8.55;;;3.45;;
31966;SDS011;18496;52.042;6.812;2024-02-26T06:28:46;5.38;;;3.50;;
31966;SDS011;18496;52.042;6.812;2024-02-26T06:30:50;6.03;;;3.38;;
31966;SDS011;18496;52.042;6.812;2024-02-26T06:32:55;5.68;;;4.03;;
31966;SDS011;18496;52.042;6.812;2024-02-26T06:34:59;5.32;;;3.50;;
31966;SDS011;18496;52.042;6.812;2024-02-26T06:37:02;4.93;;;3.38;;
31966;SDS011;18496;52.042;6.812;2024-02-26T06:39:06;4.78;;;3.60;;
31966;SDS011;18496;52.042;6.812;2024-02-26T06:41:11;7.95;;;4.85;;
31966;SDS011;18496;52.042;6.812;2024-02-26T06:43:15;5.60;;;3.95;;
31966;SDS011;18496;52.042;6.812;2024-02-26T06:45:18;4.68;;;3.75;;
31966;SDS011;18496;52.042;6.812;2024-02-26T06:47:22;5.18;;;3.47;;
31966;SDS011;18496;52.042;6.812;2024-02-26T06:49:26;6.07;;;3.22;;
31966;SDS011;18496;52.042;6.812;2024-02-26T06:51:30;3.78;;;3.05;;
31966;SDS011;18496;52.042;6.812;2024-02-26T06:53:34;5.78;;;3.30;;
31966;SDS011;18496;52.042;6.812;2024-02-26T06:55:38;5.38;;;3.70;;
31966;SDS011;18496;52.042;6.812;2024-02-26T06:57:43;10.25;;;3.95;;
31966;SDS011;18496;52.042;6.812;2024-02-26T06:59:47;6.60;;;4.10;;
31966;SDS011;18496;52.042;6.812;2024-02-26T07:01:51;6.10;;;3.60;;
31966;SDS011;18496;52.042;6.812;2024-02-26T07:03:54;5.15;;;3.65;;
31966;SDS011;18496;52.042;6.812;2024-02-26T07:05:58;5.82;;;3.75;;
31966;SDS011;18496;52.042;6.812;2024-02-26T07:08:02;4.72;;;3.40;;
31966;SDS011;18496;52.042;6.812;2024-02-26T07:10:05;7.03;;;3.60;;
31966;SDS011;18496;52.042;6.812;2024-02-26T07:12:09;4.63;;;3.53;;
31966;SDS011;18496;52.042;6.812;2024-02-26T07:14:13;6.60;;;3.63;;
31966;SDS011;18496;52.042;6.812;2024-02-26T07:16:17;6.15;;;3.55;;
31966;SDS011;18496;52.042;6.812;2024-02-26T07:18:20;4.72;;;3.30;;
31966;SDS011;18496;52.042;6.812;2024-02-26T07:20:24;6.40;;;3.50;;
31966;SDS011;18496;52.042;6.812;2024-02-26T07:22:28;6.97;;;3.70;;
31966;SDS011;18496;52.042;6.812;2024-02-26T07:24:31;5.65;;;3.40;;
31966;SDS011;18496;52.042;6.812;2024-02-26T07:26:35;8.18;;;4.00;;
31966;SDS011;18496;52.042;6.812;2024-02-26T07:28:39;7.43;;;3.90;;
31966;SDS011;18496;52.042;6.812;2024-02-26T07:30:43;5.72;;;3.50;;
31966;SDS011;18496;52.042;6.812;2024-02-26T07:32:46;7.85;;;3.90;;
31966;SDS011;18496;52.042;6.812;2024-02-26T07:34:50;5.05;;;3.38;;
31966;SDS011;18496;52.042;6.812;2024-02-26T07:36:54;8.77;;;3.63;;
31966;SDS011;18496;52.042;6.812;2024-02-26T07:38:59;6.18;;;3.72;;
31966;SDS011;18496;52.042;6.812;2024-02-26T07:41:04;7.07;;;3.80;;
31966;SDS011;18496;52.042;6.812;2024-02-26T07:43:08;5.72;;;3.60;;
31966;SDS011;18496;52.042;6.812;2024-02-26T07:45:11;9.15;;;4.20;;
31966;SDS011;18496;52.042;6.812;2024-02-26T07:47:15;5.35;;;3.30;;
31966;SDS011;18496;52.042;6.812;2024-02-26T07:49:19;5.35;;;3.53;;
31966;SDS011;18496;52.042;6.812;2024-02-26T07:51:23;8.15;;;3.47;;
31966;SDS011;18496;52.042;6.812;2024-02-26T07:53:26;6.07;;;3.40;;
31966;SDS011;18496;52.042;6.812;2024-02-26T07:55:30;6.43;;;3.50;;
31966;SDS011;18496;52.042;6.812;2024-02-26T07:57:34;5.28;;;3.20;;
31966;SDS011;18496;52.042;6.812;2024-02-26T07:59:40;5.05;;;3.35;;
31966;SDS011;18496;52.042;6.812;2024-02-26T08:01:43;7.00;;;3.22;;
31966;SDS011;18496;52.042;6.812;2024-02-26T08:03:52;5.32;;;3.60;;
31966;SDS011;18496;52.042;6.812;2024-02-26T08:05:56;7.95;;;4.10;;
31966;SDS011;18496;52.042;6.812;2024-02-26T08:08:00;5.68;;;3.63;;
31966;SDS011;18496;52.042;6.812;2024-02-26T08:10:04;5.03;;;3.25;;
31966;SDS011;18496;52.042;6.812;2024-02-26T08:12:08;4.50;;;3.42;;
31966;SDS011;18496;52.042;6.812;2024-02-26T08:14:11;6.47;;;3.45;;
31966;SDS011;18496;52.042;6.812;2024-02-26T08:16:15;5.13;;;3.40;;
31966;SDS011;18496;52.042;6.812;2024-02-26T08:18:19;5.65;;;3.22;;
31966;SDS011;18496;52.042;6.812;2024-02-26T08:20:23;5.93;;;3.55;;
31966;SDS011;18496;52.042;6.812;2024-02-26T08:22:27;8.00;;;3.53;;
31966;SDS011;18496;52.042;6.812;2024-02-26T08:24:30;5.75;;;3.22;;
31966;SDS011;18496;52.042;6.812;2024-02-26T08:26:34;8.57;;;3.53;;
31966;SDS011;18496;52.042;6.812;2024-02-26T08:28:38;5.75;;;3.67;;
31966;SDS011;18496;52.042;6.812;2024-02-26T08:30:41;5.90;;;3.53;;
31966;SDS011;18496;52.042;6.812;2024-02-26T08:32:45;7.20;;;3.83;;
31966;SDS011;18496;52.042;6.812;2024-02-26T08:34:50;5.55;;;3.90;;
31966;SDS011;18496;52.042;6.812;2024-02-26T08:36:54;6.47;;;3.83;;
31966;SDS011;18496;52.042;6.812;2024-02-26T08:38:57;8.02;;;4.57;;
31966;SDS011;18496;52.042;6.812;2024-02-26T08:41:01;6.15;;;4.05;;
31966;SDS011;18496;52.042;6.812;2024-02-26T08:43:08;5.75;;;3.85;;
31966;SDS011;18496;52.042;6.812;2024-02-26T08:45:12;6.65;;;4.28;;
31966;SDS011;18496;52.042;6.812;2024-02-26T08:47:16;6.65;;;4.47;;
31966;SDS011;18496;52.042;6.812;2024-02-26T08:49:20;6.95;;;4.60;;
31966;SDS011;18496;52.042;6.812;2024-02-26T08:51:26;10.13;;;4.70;;
31966;SDS011;18496;52.042;6.812;2024-02-26T08:53:30;26.25;;;11.43;;
31966;SDS011;18496;52.042;6.812;2024-02-26T08:55:33;9.05;;;5.07;;
31966;SDS011;18496;52.042;6.812;2024-02-26T08:57:37;8.00;;;5.00;;
31966;SDS011;18496;52.042;6.812;2024-02-26T08:59:41;12.07;;;5.05;;
31966;SDS011;18496;52.042;6.812;2024-02-26T09:01:45;12.25;;;6.28;;
31966;SDS011;18496;52.042;6.812;2024-02-26T09:03:49;9.32;;;5.40;;
31966;SDS011;18496;52.042;6.812;2024-02-26T09:05:53;8.77;;;5.88;;
31966;SDS011;18496;52.042;6.812;2024-02-26T09:07:56;10.95;;;6.78;;
31966;SDS011;18496;52.042;6.812;2024-02-26T09:10:00;9.68;;;6.13;;
31966;SDS011;18496;52.042;6.812;2024-02-26T09:12:04;9.38;;;5.55;;
31966;SDS011;18496;52.042;6.812;2024-02-26T09:14:08;8.65;;;5.60;;
31966;SDS011;18496;52.042;6.812;2024-02-26T09:16:11;11.70;;;6.20;;
31966;SDS011;18496;52.042;6.812;2024-02-26T09:18:16;11.57;;;6.70;;
31966;SDS011;18496;52.042;6.812;2024-02-26T09:20:19;9.50;;;5.40;;
31966;SDS011;18496;52.042;6.812;2024-02-26T09:22:24;8.43;;;5.35;;
31966;SDS011;18496;52.042;6.812;2024-02-26T09:24:28;10.32;;;5.82;;
31966;SDS011;18496;52.042;6.812;2024-02-26T09:26:32;11.90;;;6.25;;
31966;SDS011;18496;52.042;6.812;2024-02-26T09:28:35;8.98;;;6.00;;
31966;SDS011;18496;52.042;6.812;2024-02-26T09:30:40;10.45;;;6.13;;
31966;SDS011;18496;52.042;6.812;2024-02-26T09:32:45;9.02;;;6.40;;
31966;SDS011;18496;52.042;6.812;2024-02-26T09:34:51;9.40;;;5.78;;
31966;SDS011;18496;52.042;6.812;2024-02-26T09:36:54;10.75;;;7.25;;
31966;SDS011;18496;52.042;6.812;2024-02-26T09:38:58;11.35;;;6.20;;
31966;SDS011;18496;52.042;6.812;2024-02-26T09:41:02;11.05;;;5.90;;
31966;SDS011;18496;52.042;6.812;2024-02-26T09:43:06;9.85;;;6.00;;
31966;SDS011;18496;52.042;6.812;2024-02-26T09:45:19;10.80;;;6.15;;
31966;SDS011;18496;52.042;6.812;2024-02-26T09:47:25;12.60;;;6.25;;
31966;SDS011;18496;52.042;6.812;2024-02-26T09:49:31;10.27;;;6.50;;
31966;SDS011;18496;52.042;6.812;2024-02-26T09:51:35;11.50;;;6.97;;
31966;SDS011;18496;52.042;6.812;2024-02-26T09:53:39;10.65;;;6.78;;
31966;SDS011;18496;52.042;6.812;2024-02-26T09:55:46;11.27;;;6.72;;
31966;SDS011;18496;52.042;6.812;2024-02-26T09:57:50;10.18;;;5.80;;
31966;SDS011;18496;52.042;6.812;2024-02-26T09:59:54;13.20;;;7.57;;
31966;SDS011;18496;52.042;6.812;2024-02-26T10:02:13;12.70;;;7.25;;
31966;SDS011;18496;52.042;6.812;2024-02-26T10:04:18;13.30;;;7.70;;
31966;SDS011;18496;52.042;6.812;2024-02-26T10:06:22;11.40;;;7.43;;
31966;SDS011;18496;52.042;6.812;2024-02-26T10:08:29;12.50;;;7.43;;
31966;SDS011;18496;52.042;6.812;2024-02-26T10:10:33;12.68;;;6.80;;
31966;SDS011;18496;52.042;6.812;2024-02-26T10:12:36;11.63;;;6.65;;
31966;SDS011;18496;52.042;6.812;2024-02-26T10:14:40;10.77;;;6.28;;
31966;SDS011;18496;52.042;6.812;2024-02-26T10:16:44;11.30;;;7.30;;
31966;SDS011;18496;52.042;6.812;2024-02-26T10:18:48;11.35;;;7.05;;
31966;SDS011;18496;52.042;6.812;2024-02-26T10:20:59;11.52;;;6.82;;
31966;SDS011;18496;52.042;6.812;2024-02-26T10:23:06;12.38;;;7.78;;
31966;SDS011;18496;52.042;6.812;2024-02-26T10:25:10;11.98;;;6.97;;
31966;SDS011;18496;52.042;6.812;2024-02-26T10:27:13;14.43;;;7.28;;
31966;SDS011;18496;52.042;6.812;2024-02-26T10:29:18;12.75;;;7.88;;
31966;SDS011;18496;52.042;6.812;2024-02-26T10:31:23;11.48;;;7.28;;
31966;SDS011;18496;52.042;6.812;2024-02-26T10:33:27;14.93;;;7.30;;
31966;SDS011;18496;52.042;6.812;2024-02-26T10:35:30;12.55;;;7.45;;
31966;SDS011;18496;52.042;6.812;2024-02-26T10:37:35;10.93;;;7.35;;
31966;SDS011;18496;52.042;6.812;2024-02-26T10:39:38;14.02;;;7.93;;
31966;SDS011;18496;52.042;6.812;2024-02-26T10:41:42;14.43;;;8.38;;
31966;SDS011;18496;52.042;6.812;2024-02-26T10:43:47;14.18;;;8.20;;
31966;SDS011;18496;52.042;6.812;2024-02-26T10:45:51;14.60;;;8.90;;
31966;SDS011;18496;52.042;6.812;2024-02-26T10:47:54;16.98;;;8.82;;
31966;SDS011;18496;52.042;6.812;2024-02-26T10:49:58;14.20;;;8.77;;
31966;SDS011;18496;52.042;6.812;2024-02-26T10:52:04;14.43;;;7.55;;
31966;SDS011;18496;52.042;6.812;2024-02-26T10:54:09;12.38;;;7.35;;
31966;SDS011;18496;52.042;6.812;2024-02-26T10:56:18;14.90;;;8.80;;
31966;SDS011;18496;52.042;6.812;2024-02-26T10:58:25;16.55;;;9.13;;
31966;SDS011;18496;52.042;6.812;2024-02-26T11:00:29;13.10;;;8.10;;
31966;SDS011;18496;52.042;6.812;2024-02-26T11:02:34;15.38;;;8.27;;
31966;SDS011;18496;52.042;6.812;2024-02-26T11:04:39;20.60;;;9.82;;
31966;SDS011;18496;52.042;6.812;2024-02-26T11:06:44;15.95;;;9.05;;
31966;SDS011;18496;52.042;6.812;2024-02-26T11:08:52;17.02;;;8.93;;
31966;SDS011;18496;52.042;6.812;2024-02-26T11:10:56;16.70;;;9.48;;
31966;SDS011;18496;52.042;6.812;2024-02-26T11:13:01;18.13;;;9.80;;
31966;SDS011;18496;52.042;6.812;2024-02-26T11:15:06;17.05;;;9.07;;
31966;SDS011;18496;52.042;6.812;2024-02-26T11:17:11;21.92;;;10.13;;
31966;SDS011;18496;52.042;6.812;2024-02-26T11:19:16;15.05;;;8.95;;
31966;SDS011;18496;52.042;6.812;2024-02-26T11:21:21;17.92;;;9.82;;
31966;SDS011;18496;52.042;6.812;2024-02-26T11:23:41;17.70;;;9.05;;
31966;SDS011;18496;52.042;6.812;2024-02-26T11:25:46;20.13;;;10.52;;
31966;SDS011;18496;52.042;6.812;2024-02-26T11:27:51;20.50;;;10.52;;
31966;SDS011;18496;52.042;6.812;2024-02-26T11:30:02;20.48;;;10.68;;
31966;SDS011;18496;52.042;6.812;2024-02-26T11:32:08;19.58;;;11.02;;
31966;SDS011;18496;52.042;6.812;2024-02-26T11:34:13;23.33;;;11.68;;
31966;SDS011;18496;52.042;6.812;2024-02-26T11:36:17;19.30;;;11.05;;
31966;SDS011;18496;52.042;6.812;2024-02-26T11:38:21;21.23;;;11.55;;
31966;SDS011;18496;52.042;6.812;2024-02-26T11:40:27;23.17;;;10.85;;
31966;SDS011;18496;52.042;6.812;2024-02-26T11:42:31;22.08;;;11.52;;
31966;SDS011;18496;52.042;6.812;2024-02-26T11:44:36;22.33;;;11.35;;
31966;SDS011;18496;52.042;6.812;2024-02-26T11:46:40;22.75;;;11.57;;
31966;SDS011;18496;52.042;6.812;2024-02-26T11:48:46;21.77;;;11.15;;
31966;SDS011;18496;52.042;6.812;2024-02-26T11:50:53;18.75;;;10.23;;
31966;SDS011;18496;52.042;6.812;2024-02-26T11:55:32;22.02;;;10.85;;
31966;SDS011;18496;52.042;6.812;2024-02-26T11:59:39;21.40;;;11.38;;
31966;SDS011;18496;52.042;6.812;2024-02-26T12:01:48;26.08;;;12.30;;
31966;SDS011;18496;52.042;6.812;2024-02-26T12:03:54;21.63;;;11.18;;
31966;SDS011;18496;52.042;6.812;2024-02-26T12:05:58;25.52;;;11.93;;
31966;SDS011;18496;52.042;6.812;2024-02-26T12:08:03;24.02;;;11.88;;
31966;SDS011;18496;52.042;6.812;2024-02-26T12:10:14;24.30;;;12.30;;
31966;SDS011;18496;52.042;6.812;2024-02-26T12:12:19;21.27;;;10.98;;
31966;SDS011;18496;52.042;6.812;2024-02-26T12:14:27;24.23;;;11.60;;
31966;SDS011;18496;52.042;6.812;2024-02-26T12:16:36;23.20;;;11.15;;
31966;SDS011;18496;52.042;6.812;2024-02-26T12:18:44;21.17;;;11.73;;
31966;SDS011;18496;52.042;6.812;2024-02-26T12:20:58;21.60;;;11.73;;
31966;SDS011;18496;52.042;6.812;2024-02-26T12:23:04;23.85;;;11.15;;
31966;SDS011;18496;52.042;6.812;2024-02-26T12:25:09;21.10;;;10.73;;
31966;SDS011;18496;52.042;6.812;2024-02-26T12:27:12;21.05;;;11.43;;
31966;SDS011;18496;52.042;6.812;2024-02-26T12:29:18;19.92;;;10.40;;